sensor_id;sensor_type;location;lat;lon;timestamp;temperature;humidity
35495;DHT22;21608;49.300;6.846;2022-07-29T00:01:17;25.30;43.40
35495;DHT22;21608;49.300;6.846;2022-07-29T00:04:20;25.30;43.40
35495;DHT22;21608;49.300;6.846;2022-07-29T00:07:23;25.30;43.30
35495;DHT22;21608;49.300;6.846;2022-07-29T00:10:25;25.30;43.30
35495;DHT22;21608;49.300;6.846;2022-07-29T00:13:29;25.30;43.20
35495;DHT22;21608;49.300;6.846;2022-07-29T00:16:33;25.30;43.10
35495;DHT22;21608;49.300;6.846;2022-07-29T00:19:35;25.30;43.10
35495;DHT22;21608;49.300;6.846;2022-07-29T00:22:38;25.30;43.10
35495;DHT22;21608;49.300;6.846;2022-07-29T00:25:40;25.30;43.00
35495;DHT22;21608;49.300;6.846;2022-07-29T00:28:41;25.30;43.10
35495;DHT22;21608;49.300;6.846;2022-07-29T00:31:43;25.20;43.00
35495;DHT22;21608;49.300;6.846;2022-07-29T00:34:46;25.30;43.00
35495;DHT22;21608;49.300;6.846;2022-07-29T00:38:06;25.20;42.90
35495;DHT22;21608;49.300;6.846;2022-07-29T00:41:08;25.20;42.90
35495;DHT22;21608;49.300;6.846;2022-07-29T00:44:10;25.20;42.90
35495;DHT22;21608;49.300;6.846;2022-07-29T00:47:12;25.20;42.90
35495;DHT22;21608;49.300;6.846;2022-07-29T00:50:14;25.20;42.90
35495;DHT22;21608;49.300;6.846;2022-07-29T00:53:16;25.20;42.90
35495;DHT22;21608;49.300;6.846;2022-07-29T00:56:19;25.20;42.90
35495;DHT22;21608;49.300;6.846;2022-07-29T00:59:20;25.20;42.80
35495;DHT22;21608;49.300;6.846;2022-07-29T01:02:22;25.20;42.80
35495;DHT22;21608;49.300;6.846;2022-07-29T01:05:26;25.20;42.80
35495;DHT22;21608;49.300;6.846;2022-07-29T01:08:50;25.20;42.70
35495;DHT22;21608;49.300;6.846;2022-07-29T01:11:52;25.20;42.80
35495;DHT22;21608;49.300;6.846;2022-07-29T01:14:55;25.20;42.70
35495;DHT22;21608;49.300;6.846;2022-07-29T01:18:10;25.20;42.80
35495;DHT22;21608;49.300;6.846;2022-07-29T01:32:05;25.10;42.60
35495;DHT22;21608;49.300;6.846;2022-07-29T01:38:16;25.10;42.60
35495;DHT22;21608;49.300;6.846;2022-07-29T01:41:21;25.10;42.50
35495;DHT22;21608;49.300;6.846;2022-07-29T01:44:37;25.10;42.60
35495;DHT22;21608;49.300;6.846;2022-07-29T01:47:58;25.10;42.50
35495;DHT22;21608;49.300;6.846;2022-07-29T01:51:05;25.10;42.50
35495;DHT22;21608;49.300;6.846;2022-07-29T01:57:19;25.10;42.40
35495;DHT22;21608;49.300;6.846;2022-07-29T02:00:23;25.10;42.30
35495;DHT22;21608;49.300;6.846;2022-07-29T02:03:25;25.10;42.20
35495;DHT22;21608;49.300;6.846;2022-07-29T02:06:29;25.10;42.20
35495;DHT22;21608;49.300;6.846;2022-07-29T02:09:35;25.10;42.20
35495;DHT22;21608;49.300;6.846;2022-07-29T02:12:39;25.10;42.20
35495;DHT22;21608;49.300;6.846;2022-07-29T02:15:42;25.10;42.20
35495;DHT22;21608;49.300;6.846;2022-07-29T02:18:45;25.10;42.20
35495;DHT22;21608;49.300;6.846;2022-07-29T02:21:51;25.10;42.20
35495;DHT22;21608;49.300;6.846;2022-07-29T02:24:55;25.00;42.10
35495;DHT22;21608;49.300;6.846;2022-07-29T02:27:59;25.00;42.10
35495;DHT22;21608;49.300;6.846;2022-07-29T02:31:03;25.00;42.10
35495;DHT22;21608;49.300;6.846;2022-07-29T02:34:08;25.00;42.10
35495;DHT22;21608;49.300;6.846;2022-07-29T02:37:11;25.00;42.10
35495;DHT22;21608;49.300;6.846;2022-07-29T02:40:15;25.00;42.10
35495;DHT22;21608;49.300;6.846;2022-07-29T02:43:17;25.00;42.00
35495;DHT22;21608;49.300;6.846;2022-07-29T02:46:28;25.00;42.00
35495;DHT22;21608;49.300;6.846;2022-07-29T02:49:36;25.00;41.90
35495;DHT22;21608;49.300;6.846;2022-07-29T02:52:42;25.00;41.90
35495;DHT22;21608;49.300;6.846;2022-07-29T02:55:57;25.00;41.90
35495;DHT22;21608;49.300;6.846;2022-07-29T02:59:07;24.90;41.90
35495;DHT22;21608;49.300;6.846;2022-07-29T03:02:12;25.00;41.90
35495;DHT22;21608;49.300;6.846;2022-07-29T03:05:20;25.00;41.80
35495;DHT22;21608;49.300;6.846;2022-07-29T03:08:22;25.00;41.90
35495;DHT22;21608;49.300;6.846;2022-07-29T03:11:25;25.00;42.40
35495;DHT22;21608;49.300;6.846;2022-07-29T03:14:48;24.90;41.80
35495;DHT22;21608;49.300;6.846;2022-07-29T03:17:51;24.90;41.80
35495;DHT22;21608;49.300;6.846;2022-07-29T03:20:53;24.90;41.80
35495;DHT22;21608;49.300;6.846;2022-07-29T03:23:55;24.90;41.80
35495;DHT22;21608;49.300;6.846;2022-07-29T03:26:58;24.90;41.70
35495;DHT22;21608;49.300;6.846;2022-07-29T03:30:00;24.90;41.70
35495;DHT22;21608;49.300;6.846;2022-07-29T03:33:01;24.90;41.70
35495;DHT22;21608;49.300;6.846;2022-07-29T03:36:14;24.90;41.70
35495;DHT22;21608;49.300;6.846;2022-07-29T03:39:19;24.90;41.70
35495;DHT22;21608;49.300;6.846;2022-07-29T03:42:25;24.90;41.70
35495;DHT22;21608;49.300;6.846;2022-07-29T03:45:35;24.90;41.70
35495;DHT22;21608;49.300;6.846;2022-07-29T03:48:39;24.90;41.70
35495;DHT22;21608;49.300;6.846;2022-07-29T03:51:43;24.90;41.60
35495;DHT22;21608;49.300;6.846;2022-07-29T03:54:46;24.90;41.70
35495;DHT22;21608;49.300;6.846;2022-07-29T03:57:48;24.90;41.60
35495;DHT22;21608;49.300;6.846;2022-07-29T04:00:51;24.90;41.60
35495;DHT22;21608;49.300;6.846;2022-07-29T04:03:53;24.90;41.60
35495;DHT22;21608;49.300;6.846;2022-07-29T04:06:55;24.90;41.60
35495;DHT22;21608;49.300;6.846;2022-07-29T04:09:57;24.90;41.60
35495;DHT22;21608;49.300;6.846;2022-07-29T04:13:00;24.90;41.70
35495;DHT22;21608;49.300;6.846;2022-07-29T04:16:01;24.90;41.50
35495;DHT22;21608;49.300;6.846;2022-07-29T04:19:03;24.90;41.50
35495;DHT22;21608;49.300;6.846;2022-07-29T04:22:05;24.90;41.40
35495;DHT22;21608;49.300;6.846;2022-07-29T04:25:07;24.90;41.50
35495;DHT22;21608;49.300;6.846;2022-07-29T04:28:10;24.90;41.50
35495;DHT22;21608;49.300;6.846;2022-07-29T04:31:13;24.90;41.40
35495;DHT22;21608;49.300;6.846;2022-07-29T04:34:14;24.90;41.30
35495;DHT22;21608;49.300;6.846;2022-07-29T04:37:17;24.90;41.40
35495;DHT22;21608;49.300;6.846;2022-07-29T04:40:19;24.90;41.40
35495;DHT22;21608;49.300;6.846;2022-07-29T04:43:21;24.80;41.40
35495;DHT22;21608;49.300;6.846;2022-07-29T04:46:24;24.90;41.40
35495;DHT22;21608;49.300;6.846;2022-07-29T04:49:26;24.80;41.40
35495;DHT22;21608;49.300;6.846;2022-07-29T04:52:28;24.80;41.30
35495;DHT22;21608;49.300;6.846;2022-07-29T04:55:29;24.90;41.40
35495;DHT22;21608;49.300;6.846;2022-07-29T04:58:34;24.90;41.40
35495;DHT22;21608;49.300;6.846;2022-07-29T05:01:36;24.90;41.40
35495;DHT22;21608;49.300;6.846;2022-07-29T05:04:38;24.90;41.50
35495;DHT22;21608;49.300;6.846;2022-07-29T05:07:39;24.90;41.50
35495;DHT22;21608;49.300;6.846;2022-07-29T05:10:42;24.90;41.50
35495;DHT22;21608;49.300;6.846;2022-07-29T05:13:44;24.90;41.50
35495;DHT22;21608;49.300;6.846;2022-07-29T05:16:47;24.90;41.60
35495;DHT22;21608;49.300;6.846;2022-07-29T05:19:52;24.90;41.60
35495;DHT22;21608;49.300;6.846;2022-07-29T05:22:58;24.90;41.70
35495;DHT22;21608;49.300;6.846;2022-07-29T05:26:01;24.90;41.60
35495;DHT22;21608;49.300;6.846;2022-07-29T05:29:03;24.90;41.60
35495;DHT22;21608;49.300;6.846;2022-07-29T05:32:05;24.90;41.60
35495;DHT22;21608;49.300;6.846;2022-07-29T05:35:07;24.90;41.70
35495;DHT22;21608;49.300;6.846;2022-07-29T05:38:09;24.90;41.70
35495;DHT22;21608;49.300;6.846;2022-07-29T05:41:11;24.90;41.70
35495;DHT22;21608;49.300;6.846;2022-07-29T05:44:13;25.00;41.80
35495;DHT22;21608;49.300;6.846;2022-07-29T05:47:15;24.90;41.80
35495;DHT22;21608;49.300;6.846;2022-07-29T05:50:17;25.00;41.90
35495;DHT22;21608;49.300;6.846;2022-07-29T05:53:19;25.00;42.00
35495;DHT22;21608;49.300;6.846;2022-07-29T05:56:21;25.00;42.00
35495;DHT22;21608;49.300;6.846;2022-07-29T05:59:23;25.00;42.10
35495;DHT22;21608;49.300;6.846;2022-07-29T06:02:30;25.00;42.10
35495;DHT22;21608;49.300;6.846;2022-07-29T06:05:32;25.10;42.20
35495;DHT22;21608;49.300;6.846;2022-07-29T06:08:34;25.10;42.20
35495;DHT22;21608;49.300;6.846;2022-07-29T06:11:37;25.10;42.30
35495;DHT22;21608;49.300;6.846;2022-07-29T06:14:39;25.10;42.30
35495;DHT22;21608;49.300;6.846;2022-07-29T06:17:41;25.10;42.20
35495;DHT22;21608;49.300;6.846;2022-07-29T06:21:01;25.10;42.80
35495;DHT22;21608;49.300;6.846;2022-07-29T06:24:09;25.20;42.40
35495;DHT22;21608;49.300;6.846;2022-07-29T06:27:11;25.20;42.40
35495;DHT22;21608;49.300;6.846;2022-07-29T06:30:13;25.20;42.40
35495;DHT22;21608;49.300;6.846;2022-07-29T06:33:18;25.20;43.00
35495;DHT22;21608;49.300;6.846;2022-07-29T06:36:20;25.20;42.40
35495;DHT22;21608;49.300;6.846;2022-07-29T06:39:25;25.20;42.40
35495;DHT22;21608;49.300;6.846;2022-07-29T06:42:27;25.20;42.40
35495;DHT22;21608;49.300;6.846;2022-07-29T06:45:29;25.20;42.40
35495;DHT22;21608;49.300;6.846;2022-07-29T06:48:31;25.20;42.40
35495;DHT22;21608;49.300;6.846;2022-07-29T06:51:33;25.20;42.20
35495;DHT22;21608;49.300;6.846;2022-07-29T06:54:35;25.30;42.30
35495;DHT22;21608;49.300;6.846;2022-07-29T06:57:37;25.20;42.20
35495;DHT22;21608;49.300;6.846;2022-07-29T07:00:39;25.10;42.20
35495;DHT22;21608;49.300;6.846;2022-07-29T07:03:41;25.10;42.40
35495;DHT22;21608;49.300;6.846;2022-07-29T07:06:43;25.10;42.40
35495;DHT22;21608;49.300;6.846;2022-07-29T07:09:45;25.10;42.50
35495;DHT22;21608;49.300;6.846;2022-07-29T07:12:47;25.10;42.40
35495;DHT22;21608;49.300;6.846;2022-07-29T07:15:49;25.00;42.40
35495;DHT22;21608;49.300;6.846;2022-07-29T07:18:52;25.10;42.50
35495;DHT22;21608;49.300;6.846;2022-07-29T07:21:54;25.10;42.50
35495;DHT22;21608;49.300;6.846;2022-07-29T07:24:56;25.10;42.50
35495;DHT22;21608;49.300;6.846;2022-07-29T07:27:59;25.10;42.60
35495;DHT22;21608;49.300;6.846;2022-07-29T07:31:01;25.10;42.80
35495;DHT22;21608;49.300;6.846;2022-07-29T07:34:03;25.10;42.80
35495;DHT22;21608;49.300;6.846;2022-07-29T07:37:05;25.10;42.90
35495;DHT22;21608;49.300;6.846;2022-07-29T07:40:08;25.10;43.00
35495;DHT22;21608;49.300;6.846;2022-07-29T07:43:11;25.10;43.00
35495;DHT22;21608;49.300;6.846;2022-07-29T07:46:12;25.10;43.10
35495;DHT22;21608;49.300;6.846;2022-07-29T07:49:14;25.10;43.10
35495;DHT22;21608;49.300;6.846;2022-07-29T07:52:17;25.10;43.10
35495;DHT22;21608;49.300;6.846;2022-07-29T07:55:19;25.10;43.10
35495;DHT22;21608;49.300;6.846;2022-07-29T07:58:21;25.10;43.20
35495;DHT22;21608;49.300;6.846;2022-07-29T08:01:23;25.10;43.20
35495;DHT22;21608;49.300;6.846;2022-07-29T08:04:25;25.10;43.20
35495;DHT22;21608;49.300;6.846;2022-07-29T08:07:29;25.10;43.30
35495;DHT22;21608;49.300;6.846;2022-07-29T08:10:31;25.10;43.40
35495;DHT22;21608;49.300;6.846;2022-07-29T08:13:52;25.10;43.40
35495;DHT22;21608;49.300;6.846;2022-07-29T08:16:56;25.10;43.30
35495;DHT22;21608;49.300;6.846;2022-07-29T08:19:58;25.20;43.50
35495;DHT22;21608;49.300;6.846;2022-07-29T08:23:01;25.20;43.70
35495;DHT22;21608;49.300;6.846;2022-07-29T08:26:03;25.20;43.70
35495;DHT22;21608;49.300;6.846;2022-07-29T08:29:04;25.20;43.40
35495;DHT22;21608;49.300;6.846;2022-07-29T08:32:06;25.20;43.80
35495;DHT22;21608;49.300;6.846;2022-07-29T08:35:08;25.20;43.30
35495;DHT22;21608;49.300;6.846;2022-07-29T08:38:10;25.20;43.30
35495;DHT22;21608;49.300;6.846;2022-07-29T08:41:12;25.20;43.40
35495;DHT22;21608;49.300;6.846;2022-07-29T08:44:18;25.10;43.50
35495;DHT22;21608;49.300;6.846;2022-07-29T08:47:31;25.20;43.70
35495;DHT22;21608;49.300;6.846;2022-07-29T08:50:35;25.20;43.60
35495;DHT22;21608;49.300;6.846;2022-07-29T08:53:37;25.20;43.50
35495;DHT22;21608;49.300;6.846;2022-07-29T08:56:39;25.20;43.70
35495;DHT22;21608;49.300;6.846;2022-07-29T08:59:42;25.20;43.90
35495;DHT22;21608;49.300;6.846;2022-07-29T09:02:51;25.20;44.00
35495;DHT22;21608;49.300;6.846;2022-07-29T09:05:58;25.20;44.00
35495;DHT22;21608;49.300;6.846;2022-07-29T09:09:01;25.20;44.20
35495;DHT22;21608;49.300;6.846;2022-07-29T09:12:03;25.20;44.30
35495;DHT22;21608;49.300;6.846;2022-07-29T09:15:06;25.20;44.30
35495;DHT22;21608;49.300;6.846;2022-07-29T09:18:07;25.20;44.30
35495;DHT22;21608;49.300;6.846;2022-07-29T09:21:40;25.20;44.40
35495;DHT22;21608;49.300;6.846;2022-07-29T09:25:00;25.20;44.60
35495;DHT22;21608;49.300;6.846;2022-07-29T09:28:13;25.20;44.70
35495;DHT22;21608;49.300;6.846;2022-07-29T09:31:15;25.20;44.70
35495;DHT22;21608;49.300;6.846;2022-07-29T09:34:22;25.20;44.70
35495;DHT22;21608;49.300;6.846;2022-07-29T09:37:28;25.20;44.80
35495;DHT22;21608;49.300;6.846;2022-07-29T09:40:30;25.20;44.80
35495;DHT22;21608;49.300;6.846;2022-07-29T09:43:32;25.20;44.60
35495;DHT22;21608;49.300;6.846;2022-07-29T09:46:34;25.30;44.50
35495;DHT22;21608;49.300;6.846;2022-07-29T09:49:57;25.30;44.50
35495;DHT22;21608;49.300;6.846;2022-07-29T09:53:00;25.30;44.60
35495;DHT22;21608;49.300;6.846;2022-07-29T09:56:03;25.30;44.80
35495;DHT22;21608;49.300;6.846;2022-07-29T09:59:06;25.30;45.00
35495;DHT22;21608;49.300;6.846;2022-07-29T10:02:12;25.30;45.10
35495;DHT22;21608;49.300;6.846;2022-07-29T10:05:25;25.30;44.80
35495;DHT22;21608;49.300;6.846;2022-07-29T10:08:27;25.30;44.60
35495;DHT22;21608;49.300;6.846;2022-07-29T10:11:29;25.30;44.60
35495;DHT22;21608;49.300;6.846;2022-07-29T10:14:51;25.30;44.50
35495;DHT22;21608;49.300;6.846;2022-07-29T10:17:54;25.30;44.60
35495;DHT22;21608;49.300;6.846;2022-07-29T10:20:56;25.30;44.80
35495;DHT22;21608;49.300;6.846;2022-07-29T10:23:59;25.40;44.80
35495;DHT22;21608;49.300;6.846;2022-07-29T10:27:04;25.40;44.70
35495;DHT22;21608;49.300;6.846;2022-07-29T10:30:06;25.40;44.80
35495;DHT22;21608;49.300;6.846;2022-07-29T10:36:48;25.30;44.60
35495;DHT22;21608;49.300;6.846;2022-07-29T10:40:03;25.30;45.10
35495;DHT22;21608;49.300;6.846;2022-07-29T10:43:32;25.30;45.20
35495;DHT22;21608;49.300;6.846;2022-07-29T10:46:40;25.30;45.20
35495;DHT22;21608;49.300;6.846;2022-07-29T10:49:55;25.30;45.10
35495;DHT22;21608;49.300;6.846;2022-07-29T10:52:58;25.30;45.20
35495;DHT22;21608;49.300;6.846;2022-07-29T10:56:01;25.30;45.20
35495;DHT22;21608;49.300;6.846;2022-07-29T11:06:06;25.40;45.20
35495;DHT22;21608;49.300;6.846;2022-07-29T11:09:19;25.30;45.00
35495;DHT22;21608;49.300;6.846;2022-07-29T11:15:57;25.30;45.00
35495;DHT22;21608;49.300;6.846;2022-07-29T11:22:35;25.30;45.20
35495;DHT22;21608;49.300;6.846;2022-07-29T11:25:37;25.30;45.20
35495;DHT22;21608;49.300;6.846;2022-07-29T11:32:09;25.30;45.20
35495;DHT22;21608;49.300;6.846;2022-07-29T11:35:19;25.30;45.30
35495;DHT22;21608;49.300;6.846;2022-07-29T11:38:41;25.30;45.30
35495;DHT22;21608;49.300;6.846;2022-07-29T11:41:42;25.40;45.20
35495;DHT22;21608;49.300;6.846;2022-07-29T11:48:29;25.30;45.30
35495;DHT22;21608;49.300;6.846;2022-07-29T11:51:36;25.30;45.30
35495;DHT22;21608;49.300;6.846;2022-07-29T11:54:50;25.40;45.30
35495;DHT22;21608;49.300;6.846;2022-07-29T11:58:12;25.30;45.30
35495;DHT22;21608;49.300;6.846;2022-07-29T12:01:17;25.40;45.20
35495;DHT22;21608;49.300;6.846;2022-07-29T12:04:19;25.30;45.10
35495;DHT22;21608;49.300;6.846;2022-07-29T12:07:31;25.40;45.10
35495;DHT22;21608;49.300;6.846;2022-07-29T12:10:36;25.40;45.20
35495;DHT22;21608;49.300;6.846;2022-07-29T12:13:39;25.40;45.00
35495;DHT22;21608;49.300;6.846;2022-07-29T12:16:41;25.40;45.00
35495;DHT22;21608;49.300;6.846;2022-07-29T12:19:44;25.40;45.00
35495;DHT22;21608;49.300;6.846;2022-07-29T12:22:46;25.40;45.00
35495;DHT22;21608;49.300;6.846;2022-07-29T12:25:50;25.40;45.10
35495;DHT22;21608;49.300;6.846;2022-07-29T12:28:51;25.40;45.10
35495;DHT22;21608;49.300;6.846;2022-07-29T12:31:55;25.40;45.10
35495;DHT22;21608;49.300;6.846;2022-07-29T12:34:59;25.40;45.10
35495;DHT22;21608;49.300;6.846;2022-07-29T12:38:02;25.40;45.20
35495;DHT22;21608;49.300;6.846;2022-07-29T12:41:04;25.40;45.20
35495;DHT22;21608;49.300;6.846;2022-07-29T12:44:10;25.40;45.30
35495;DHT22;21608;49.300;6.846;2022-07-29T12:47:12;25.40;45.30
35495;DHT22;21608;49.300;6.846;2022-07-29T12:50:14;25.40;45.30
35495;DHT22;21608;49.300;6.846;2022-07-29T12:53:24;25.40;45.20
35495;DHT22;21608;49.300;6.846;2022-07-29T12:56:26;25.40;45.40
35495;DHT22;21608;49.300;6.846;2022-07-29T12:59:44;25.40;45.30
35495;DHT22;21608;49.300;6.846;2022-07-29T13:02:54;25.40;45.40
35495;DHT22;21608;49.300;6.846;2022-07-29T13:05:57;25.40;45.40
35495;DHT22;21608;49.300;6.846;2022-07-29T13:08:59;25.40;45.30
35495;DHT22;21608;49.300;6.846;2022-07-29T13:12:06;25.40;45.30
35495;DHT22;21608;49.300;6.846;2022-07-29T13:15:15;25.50;45.40
35495;DHT22;21608;49.300;6.846;2022-07-29T13:18:32;25.50;45.40
35495;DHT22;21608;49.300;6.846;2022-07-29T13:21:34;25.50;45.40
35495;DHT22;21608;49.300;6.846;2022-07-29T13:24:57;25.50;45.40
35495;DHT22;21608;49.300;6.846;2022-07-29T13:27:59;25.50;45.40
35495;DHT22;21608;49.300;6.846;2022-07-29T13:31:02;25.40;45.30
35495;DHT22;21608;49.300;6.846;2022-07-29T13:34:04;25.50;45.40
35495;DHT22;21608;49.300;6.846;2022-07-29T13:37:06;25.40;45.40
35495;DHT22;21608;49.300;6.846;2022-07-29T13:40:08;25.40;45.50
35495;DHT22;21608;49.300;6.846;2022-07-29T13:43:11;25.50;45.60
35495;DHT22;21608;49.300;6.846;2022-07-29T13:46:13;25.50;45.60
35495;DHT22;21608;49.300;6.846;2022-07-29T13:49:15;25.50;45.50
35495;DHT22;21608;49.300;6.846;2022-07-29T13:52:17;25.40;45.50
35495;DHT22;21608;49.300;6.846;2022-07-29T13:55:19;25.50;45.60
35495;DHT22;21608;49.300;6.846;2022-07-29T13:58:21;25.40;45.60
35495;DHT22;21608;49.300;6.846;2022-07-29T14:01:23;25.50;45.60
35495;DHT22;21608;49.300;6.846;2022-07-29T14:04:25;25.40;45.60
35495;DHT22;21608;49.300;6.846;2022-07-29T14:07:27;25.40;45.60
35495;DHT22;21608;49.300;6.846;2022-07-29T14:10:29;25.40;45.70
35495;DHT22;21608;49.300;6.846;2022-07-29T14:13:31;25.40;45.60
35495;DHT22;21608;49.300;6.846;2022-07-29T14:16:33;25.40;45.60
35495;DHT22;21608;49.300;6.846;2022-07-29T14:19:39;25.40;45.70
35495;DHT22;21608;49.300;6.846;2022-07-29T14:22:41;25.40;45.70
35495;DHT22;21608;49.300;6.846;2022-07-29T14:25:46;25.40;45.70
35495;DHT22;21608;49.300;6.846;2022-07-29T14:28:50;25.40;45.70
35495;DHT22;21608;49.300;6.846;2022-07-29T14:31:51;25.40;45.70
35495;DHT22;21608;49.300;6.846;2022-07-29T14:34:53;25.40;45.70
35495;DHT22;21608;49.300;6.846;2022-07-29T14:37:55;25.40;45.70
35495;DHT22;21608;49.300;6.846;2022-07-29T14:40:57;25.40;45.70
35495;DHT22;21608;49.300;6.846;2022-07-29T14:44:00;25.40;45.70
35495;DHT22;21608;49.300;6.846;2022-07-29T14:47:02;25.40;45.70
35495;DHT22;21608;49.300;6.846;2022-07-29T14:50:09;25.40;45.70
35495;DHT22;21608;49.300;6.846;2022-07-29T14:53:11;25.40;45.70
35495;DHT22;21608;49.300;6.846;2022-07-29T14:56:14;25.40;45.80
35495;DHT22;21608;49.300;6.846;2022-07-29T14:59:36;25.40;45.90
35495;DHT22;21608;49.300;6.846;2022-07-29T15:02:38;25.40;45.70
35495;DHT22;21608;49.300;6.846;2022-07-29T15:06:00;25.40;45.80
35495;DHT22;21608;49.300;6.846;2022-07-29T15:09:02;25.40;45.90
35495;DHT22;21608;49.300;6.846;2022-07-29T15:12:04;25.40;45.90
35495;DHT22;21608;49.300;6.846;2022-07-29T15:15:06;25.30;45.90
35495;DHT22;21608;49.300;6.846;2022-07-29T15:18:08;25.40;45.90
35495;DHT22;21608;49.300;6.846;2022-07-29T15:21:10;25.40;45.90
35495;DHT22;21608;49.300;6.846;2022-07-29T15:24:12;25.40;45.90
35495;DHT22;21608;49.300;6.846;2022-07-29T15:27:14;25.40;45.80
35495;DHT22;21608;49.300;6.846;2022-07-29T15:30:16;25.40;45.80
35495;DHT22;21608;49.300;6.846;2022-07-29T15:33:34;25.40;45.70
35495;DHT22;21608;49.300;6.846;2022-07-29T15:36:36;25.40;45.80
35495;DHT22;21608;49.300;6.846;2022-07-29T15:39:54;25.40;45.80
35495;DHT22;21608;49.300;6.846;2022-07-29T15:43:04;25.40;45.80
35495;DHT22;21608;49.300;6.846;2022-07-29T15:46:07;25.40;45.90
35495;DHT22;21608;49.300;6.846;2022-07-29T15:49:28;25.40;45.80
35495;DHT22;21608;49.300;6.846;2022-07-29T15:52:50;25.40;46.00
35495;DHT22;21608;49.300;6.846;2022-07-29T15:55:52;25.40;45.90
35495;DHT22;21608;49.300;6.846;2022-07-29T15:58:54;25.40;45.90
35495;DHT22;21608;49.300;6.846;2022-07-29T16:01:56;25.40;45.90
35495;DHT22;21608;49.300;6.846;2022-07-29T16:04:57;25.30;45.90
35495;DHT22;21608;49.300;6.846;2022-07-29T16:07:59;25.40;45.90
35495;DHT22;21608;49.300;6.846;2022-07-29T16:11:01;25.40;46.00
35495;DHT22;21608;49.300;6.846;2022-07-29T16:14:03;25.40;45.90
35495;DHT22;21608;49.300;6.846;2022-07-29T16:17:05;25.30;45.80
35495;DHT22;21608;49.300;6.846;2022-07-29T16:20:07;25.40;45.80
35495;DHT22;21608;49.300;6.846;2022-07-29T16:23:11;25.30;45.80
35495;DHT22;21608;49.300;6.846;2022-07-29T16:26:13;25.30;45.80
35495;DHT22;21608;49.300;6.846;2022-07-29T16:29:14;25.40;45.90
35495;DHT22;21608;49.300;6.846;2022-07-29T16:32:19;25.40;45.90
35495;DHT22;21608;49.300;6.846;2022-07-29T16:35:23;25.40;45.90
35495;DHT22;21608;49.300;6.846;2022-07-29T16:38:39;25.40;45.90
35495;DHT22;21608;49.300;6.846;2022-07-29T16:41:48;25.40;45.90
35495;DHT22;21608;49.300;6.846;2022-07-29T16:44:50;25.30;45.80
35495;DHT22;21608;49.300;6.846;2022-07-29T16:47:53;25.40;45.90
35495;DHT22;21608;49.300;6.846;2022-07-29T16:51:01;25.30;45.80
35495;DHT22;21608;49.300;6.846;2022-07-29T16:54:02;25.40;45.90
35495;DHT22;21608;49.300;6.846;2022-07-29T16:57:04;25.40;45.90
35495;DHT22;21608;49.300;6.846;2022-07-29T17:00:06;25.40;45.90
35495;DHT22;21608;49.300;6.846;2022-07-29T17:03:08;25.30;45.80
35495;DHT22;21608;49.300;6.846;2022-07-29T17:06:10;25.40;46.40
35495;DHT22;21608;49.300;6.846;2022-07-29T17:09:12;25.40;45.90
35495;DHT22;21608;49.300;6.846;2022-07-29T17:12:18;25.30;45.80
35495;DHT22;21608;49.300;6.846;2022-07-29T17:15:20;25.40;45.90
35495;DHT22;21608;49.300;6.846;2022-07-29T17:18:22;25.40;45.90
35495;DHT22;21608;49.300;6.846;2022-07-29T17:21:26;25.40;46.00
35495;DHT22;21608;49.300;6.846;2022-07-29T17:24:28;25.30;45.90
35495;DHT22;21608;49.300;6.846;2022-07-29T17:27:31;25.40;46.00
35495;DHT22;21608;49.300;6.846;2022-07-29T17:30:33;25.30;46.00
35495;DHT22;21608;49.300;6.846;2022-07-29T17:33:35;25.30;46.00
35495;DHT22;21608;49.300;6.846;2022-07-29T17:36:37;25.30;46.00
35495;DHT22;21608;49.300;6.846;2022-07-29T17:39:39;25.30;45.90
35495;DHT22;21608;49.300;6.846;2022-07-29T17:42:42;25.30;45.90
35495;DHT22;21608;49.300;6.846;2022-07-29T17:45:43;25.30;45.90
35495;DHT22;21608;49.300;6.846;2022-07-29T17:48:51;25.30;46.00
35495;DHT22;21608;49.300;6.846;2022-07-29T17:51:53;25.30;46.00
35495;DHT22;21608;49.300;6.846;2022-07-29T17:55:01;25.30;46.00
35495;DHT22;21608;49.300;6.846;2022-07-29T17:58:03;25.30;46.00
35495;DHT22;21608;49.300;6.846;2022-07-29T18:01:05;25.30;46.00
35495;DHT22;21608;49.300;6.846;2022-07-29T18:04:07;25.30;46.00
35495;DHT22;21608;49.300;6.846;2022-07-29T18:07:10;25.30;45.90
35495;DHT22;21608;49.300;6.846;2022-07-29T18:10:12;25.30;46.00
35495;DHT22;21608;49.300;6.846;2022-07-29T18:13:14;25.30;45.90
35495;DHT22;21608;49.300;6.846;2022-07-29T18:16:18;25.30;46.00
35495;DHT22;21608;49.300;6.846;2022-07-29T18:19:20;25.30;46.00
35495;DHT22;21608;49.300;6.846;2022-07-29T18:22:22;25.30;45.90
35495;DHT22;21608;49.300;6.846;2022-07-29T18:25:24;25.30;46.00
35495;DHT22;21608;49.300;6.846;2022-07-29T18:28:27;25.30;46.00
35495;DHT22;21608;49.300;6.846;2022-07-29T18:31:29;25.30;46.00
35495;DHT22;21608;49.300;6.846;2022-07-29T18:34:31;25.30;46.00
35495;DHT22;21608;49.300;6.846;2022-07-29T18:37:33;25.30;46.00
35495;DHT22;21608;49.300;6.846;2022-07-29T18:40:55;25.30;46.00
35495;DHT22;21608;49.300;6.846;2022-07-29T18:43:57;25.30;45.90
35495;DHT22;21608;49.300;6.846;2022-07-29T18:46:59;25.30;45.90
35495;DHT22;21608;49.300;6.846;2022-07-29T18:50:04;25.30;45.90
35495;DHT22;21608;49.300;6.846;2022-07-29T18:53:06;25.30;46.00
35495;DHT22;21608;49.300;6.846;2022-07-29T18:56:09;25.30;46.00
35495;DHT22;21608;49.300;6.846;2022-07-29T18:59:10;25.30;46.00
35495;DHT22;21608;49.300;6.846;2022-07-29T19:02:17;25.30;46.00
35495;DHT22;21608;49.300;6.846;2022-07-29T19:05:19;25.30;45.90
35495;DHT22;21608;49.300;6.846;2022-07-29T19:08:21;25.30;45.90
35495;DHT22;21608;49.300;6.846;2022-07-29T19:11:25;25.30;46.60
35495;DHT22;21608;49.300;6.846;2022-07-29T19:14:27;25.30;46.00
35495;DHT22;21608;49.300;6.846;2022-07-29T19:17:29;25.30;46.00
35495;DHT22;21608;49.300;6.846;2022-07-29T19:20:31;25.30;46.00
35495;DHT22;21608;49.300;6.846;2022-07-29T19:23:33;25.30;46.00
35495;DHT22;21608;49.300;6.846;2022-07-29T19:26:55;25.30;46.00
35495;DHT22;21608;49.300;6.846;2022-07-29T19:29:58;25.30;46.10
35495;DHT22;21608;49.300;6.846;2022-07-29T19:33:00;25.20;46.00
35495;DHT22;21608;49.300;6.846;2022-07-29T19:36:02;25.30;46.10
35495;DHT22;21608;49.300;6.846;2022-07-29T19:39:04;25.30;46.10
35495;DHT22;21608;49.300;6.846;2022-07-29T19:42:06;25.30;46.10
35495;DHT22;21608;49.300;6.846;2022-07-29T19:45:09;25.30;46.10
35495;DHT22;21608;49.300;6.846;2022-07-29T19:48:11;25.30;46.10
35495;DHT22;21608;49.300;6.846;2022-07-29T19:51:13;25.30;46.10
35495;DHT22;21608;49.300;6.846;2022-07-29T19:54:15;25.30;46.10
35495;DHT22;21608;49.300;6.846;2022-07-29T19:57:18;25.30;46.10
35495;DHT22;21608;49.300;6.846;2022-07-29T20:00:20;25.30;46.10
35495;DHT22;21608;49.300;6.846;2022-07-29T20:03:24;25.30;46.10
35495;DHT22;21608;49.300;6.846;2022-07-29T20:06:26;25.30;46.10